Time;durP1;ratioP1;P1;durP2;ratioP2;P2;SDS_P1;SDS_P2;PMS_P1;PMS_P2;Temp;Humidity;BMP_temperature;BMP_pressure;BME280_temperature;BME280_humidity;BME280_pressure;Samples;Min_cycle;Max_cycle;Signal;HPM_P1;HPM_P2
2020/12/08 00:01:50;;;;;;;22.23;18.10;;;2.50;99.90;;;;;;5039188;28;20274;-69
2020/12/08 00:04:16;;;;;;;21.07;17.40;;;2.50;99.90;;;;;;5037509;28;20207;-68
2020/12/08 00:06:41;;;;;;;20.73;16.97;;;2.50;99.90;;;;;;5041546;28;20779;-68
2020/12/08 00:09:07;;;;;;;20.23;17.50;;;2.60;99.90;;;;;;5041112;28;20234;-68
2020/12/08 00:11:33;;;;;;;26.43;19.93;;;2.60;99.90;;;;;;5039893;28;20195;-68
2020/12/08 00:14:00;;;;;;;20.97;17.53;;;2.60;99.90;;;;;;5041521;28;20712;-68
2020/12/08 00:16:25;;;;;;;23.60;18.63;;;2.60;99.90;;;;;;5053354;28;20200;-68
2020/12/08 00:18:51;;;;;;;22.43;18.27;;;2.60;99.90;;;;;;5051220;28;20289;-68
2020/12/08 00:21:17;;;;;;;23.90;19.90;;;2.50;99.90;;;;;;5042440;28;20187;-68
2020/12/08 00:23:44;;;;;;;23.30;19.10;;;2.50;99.90;;;;;;5044238;28;20235;-68
2020/12/08 00:26:12;;;;;;;22.37;18.47;;;2.50;99.90;;;;;;5041366;28;20271;-68
2020/12/08 00:28:38;;;;;;;27.53;19.67;;;2.50;99.90;;;;;;5045521;28;20212;-69
2020/12/08 00:31:04;;;;;;;23.67;19.20;;;2.50;99.90;;;;;;5032716;28;20193;-68
2020/12/08 00:33:29;;;;;;;24.80;19.27;;;2.50;99.90;;;;;;5040014;28;20197;-68
2020/12/08 00:35:58;;;;;;;25.97;20.47;;;2.50;99.90;;;;;;5039854;28;20624;-68
2020/12/08 00:38:25;;;;;;;23.50;19.30;;;2.50;99.90;;;;;;5038854;28;20191;-68
2020/12/08 00:40:51;;;;;;;25.50;19.53;;;2.50;99.90;;;;;;5035921;28;20204;-69
2020/12/08 00:43:16;;;;;;;24.33;19.60;;;2.50;99.90;;;;;;5036166;28;20612;-68
2020/12/08 00:45:44;;;;;;;25.00;20.33;;;2.50;99.90;;;;;;5035276;28;20265;-68
2020/12/08 00:48:10;;;;;;;25.07;20.23;;;2.50;99.90;;;;;;5036653;28;20298;-69
2020/12/08 00:50:35;;;;;;;23.97;19.07;;;2.50;99.90;;;;;;5038385;28;20911;-68
2020/12/08 00:53:01;;;;;;;26.07;21.07;;;2.50;99.90;;;;;;5033516;28;20189;-68
2020/12/08 00:55:26;;;;;;;26.87;21.00;;;2.50;99.90;;;;;;5043395;28;20554;-68
2020/12/08 00:57:53;;;;;;;26.27;20.60;;;2.50;99.90;;;;;;5046088;28;20199;-69
2020/12/08 01:00:19;;;;;;;26.27;19.37;;;2.50;99.90;;;;;;5047636;28;20239;-69
2020/12/08 01:02:45;;;;;;;24.00;18.80;;;2.50;99.90;;;;;;5043995;28;20194;-68
2020/12/08 01:05:11;;;;;;;24.13;19.30;;;2.50;99.90;;;;;;5040450;28;20237;-68
2020/12/08 01:07:41;;;;;;;26.33;20.43;;;2.50;99.90;;;;;;5039423;28;20195;-68
2020/12/08 01:10:06;;;;;;;27.30;20.10;;;2.50;99.90;;;;;;5040945;28;20207;-68
2020/12/08 01:12:32;;;;;;;26.10;20.53;;;2.50;99.90;;;;;;5036824;28;20196;-68
2020/12/08 01:14:58;;;;;;;26.70;20.90;;;2.50;99.90;;;;;;5040406;28;20297;-68
2020/12/08 01:17:24;;;;;;;27.57;19.77;;;2.50;99.90;;;;;;5024173;28;20312;-68
2020/12/08 01:19:50;;;;;;;25.70;19.87;;;2.50;99.90;;;;;;5044353;28;20212;-69
2020/12/08 01:22:16;;;;;;;24.33;20.27;;;2.50;99.90;;;;;;5038880;28;20641;-68
2020/12/08 01:24:42;;;;;;;25.70;20.00;;;2.50;99.90;;;;;;5041350;28;20313;-68
2020/12/08 01:27:07;;;;;;;25.47;19.73;;;2.50;99.90;;;;;;5039934;28;20174;-68
2020/12/08 01:29:33;;;;;;;25.57;20.63;;;2.50;99.90;;;;;;5036002;28;20300;-69
2020/12/08 01:31:58;;;;;;;25.90;19.97;;;2.40;99.90;;;;;;5031733;28;20191;-68
2020/12/08 01:34:24;;;;;;;27.10;20.70;;;2.40;99.90;;;;;;5040745;28;20182;-68
2020/12/08 01:36:52;;;;;;;24.37;19.00;;;2.40;99.90;;;;;;5035330;28;20215;-68
2020/12/08 01:39:18;;;;;;;26.60;20.00;;;2.40;99.90;;;;;;5035200;28;20586;-68
2020/12/08 01:41:44;;;;;;;26.00;20.63;;;2.30;99.90;;;;;;5042303;28;20233;-68
2020/12/08 01:44:09;;;;;;;26.53;20.40;;;2.30;99.90;;;;;;5036709;28;20676;-68
2020/12/08 01:46:36;;;;;;;27.23;20.57;;;2.20;99.90;;;;;;5042411;28;20540;-68
2020/12/08 01:49:02;;;;;;;28.20;21.87;;;2.20;99.90;;;;;;5041009;28;20214;-68
2020/12/08 01:51:28;;;;;;;28.77;21.57;;;2.10;99.90;;;;;;5043178;28;20984;-68
2020/12/08 01:53:54;;;;;;;26.90;20.33;;;2.10;99.90;;;;;;5042456;28;20276;-68
2020/12/08 01:56:20;;;;;;;27.63;21.50;;;2.10;99.90;;;;;;5045829;28;20213;-68
2020/12/08 01:58:47;;;;;;;27.30;21.00;;;2.10;99.90;;;;;;5048532;28;20689;-68
2020/12/08 02:01:14;;;;;;;27.20;20.43;;;2.00;99.90;;;;;;5047449;28;20183;-68
2020/12/08 02:03:40;;;;;;;29.97;22.20;;;1.90;99.90;;;;;;5039850;28;20188;-68
2020/12/08 02:06:07;;;;;;;28.60;21.57;;;1.90;99.90;;;;;;5044583;28;20203;-68
2020/12/08 02:08:36;;;;;;;25.37;18.80;;;1.80;99.90;;;;;;5045792;28;20235;-68
2020/12/08 02:11:01;;;;;;;27.80;20.87;;;1.80;99.90;;;;;;5045331;28;20243;-68
2020/12/08 02:13:27;;;;;;;24.10;19.00;;;1.70;99.90;;;;;;5047126;28;20184;-68
2020/12/08 02:15:53;;;;;;;26.27;19.63;;;1.70;99.90;;;;;;5047560;28;20690;-68
2020/12/08 02:18:20;;;;;;;25.73;20.20;;;1.70;99.90;;;;;;5039485;28;20272;-68
2020/12/08 02:20:46;;;;;;;24.73;19.00;;;1.60;99.90;;;;;;5041787;28;20283;-68
2020/12/08 02:23:12;;;;;;;23.30;18.30;;;1.60;99.90;;;;;;5042624;28;20172;-68
2020/12/08 02:25:41;;;;;;;24.80;17.80;;;1.60;99.90;;;;;;5041847;28;20189;-68
2020/12/08 02:28:07;;;;;;;23.93;18.97;;;1.70;99.90;;;;;;5050694;28;20207;-68
2020/12/08 02:30:33;;;;;;;25.00;19.70;;;1.70;99.90;;;;;;5039923;28;20692;-68
2020/12/08 02:32:59;;;;;;;27.03;19.37;;;1.80;99.90;;;;;;5040196;28;20182;-68
2020/12/08 02:35:25;;;;;;;27.47;20.00;;;1.80;99.90;;;;;;5041214;28;20636;-68
2020/12/08 02:37:50;;;;;;;26.53;21.20;;;1.80;99.90;;;;;;5042744;28;20189;-68
2020/12/08 02:40:16;;;;;;;25.87;20.40;;;1.80;99.90;;;;;;5048529;28;20701;-68
2020/12/08 02:42:44;;;;;;;23.20;19.17;;;1.80;99.90;;;;;;5038551;28;20272;-68
2020/12/08 02:45:10;;;;;;;25.80;19.93;;;1.80;99.90;;;;;;5039484;28;20198;-69
2020/12/08 02:47:36;;;;;;;26.97;20.10;;;1.80;99.90;;;;;;5045303;28;20288;-69
2020/12/08 02:50:03;;;;;;;24.73;19.97;;;1.80;99.90;;;;;;5042482;28;20285;-70
2020/12/08 02:52:28;;;;;;;26.37;20.17;;;1.80;99.90;;;;;;5040558;28;20188;-68
2020/12/08 02:54:54;;;;;;;26.40;20.23;;;1.80;99.90;;;;;;5048292;28;20211;-67
2020/12/08 02:57:19;;;;;;;26.10;19.63;;;1.80;99.90;;;;;;5055627;28;20188;-68
2020/12/08 02:59:45;;;;;;;25.47;19.60;;;1.80;99.90;;;;;;5056974;28;20263;-68
2020/12/08 03:02:10;;;;;;;26.87;20.00;;;1.80;99.90;;;;;;5040491;28;20180;-68
2020/12/08 03:04:36;;;;;;;25.30;19.40;;;1.80;99.90;;;;;;5050194;28;20191;-68
2020/12/08 03:07:01;;;;;;;23.57;19.23;;;1.80;99.90;;;;;;5038888;28;20200;-68
2020/12/08 03:09:27;;;;;;;25.33;19.13;;;1.80;99.90;;;;;;5043585;28;20203;-68
2020/12/08 03:11:53;;;;;;;26.03;19.80;;;1.80;99.90;;;;;;5036953;28;20200;-68
2020/12/08 03:14:18;;;;;;;23.80;19.80;;;1.70;99.90;;;;;;5039582;28;20182;-67
2020/12/08 03:16:44;;;;;;;28.77;20.27;;;1.70;99.90;;;;;;5044774;28;20230;-68
2020/12/08 03:19:09;;;;;;;29.77;19.03;;;1.70;99.90;;;;;;5050224;28;20689;-68
2020/12/08 03:21:36;;;;;;;27.27;19.83;;;1.70;99.90;;;;;;5043446;28;20179;-68
2020/12/08 03:24:02;;;;;;;25.00;19.37;;;1.70;99.90;;;;;;5035915;28;20653;-68
2020/12/08 03:26:27;;;;;;;25.87;19.70;;;1.70;99.90;;;;;;5042865;28;20269;-68
2020/12/08 03:28:54;;;;;;;26.83;19.90;;;1.60;99.90;;;;;;5036889;28;20269;-68
2020/12/08 03:31:20;;;;;;;26.70;20.23;;;1.60;99.90;;;;;;5042430;28;20211;-68
2020/12/08 03:33:46;;;;;;;28.87;21.13;;;1.50;99.90;;;;;;5039069;28;20194;-68
2020/12/08 03:36:14;;;;;;;27.87;20.43;;;1.50;99.90;;;;;;5040875;28;20215;-68
2020/12/08 03:38:41;;;;;;;28.53;21.20;;;1.50;99.90;;;;;;5032429;28;20204;-68
2020/12/08 03:41:08;;;;;;;31.00;22.60;;;1.50;99.90;;;;;;5023184;28;20253;-67
2020/12/08 03:43:34;;;;;;;28.83;21.63;;;1.40;99.90;;;;;;5039600;28;20694;-68
2020/12/08 03:46:00;;;;;;;30.70;20.80;;;1.30;99.90;;;;;;5039688;28;20194;-68
2020/12/08 03:48:26;;;;;;;29.53;21.90;;;1.30;99.90;;;;;;5042204;28;20201;-68
2020/12/08 03:50:52;;;;;;;31.63;21.77;;;1.20;99.90;;;;;;5047985;28;20714;-68
2020/12/08 03:53:17;;;;;;;33.47;21.90;;;1.10;99.90;;;;;;5038464;28;20258;-68
2020/12/08 03:55:43;;;;;;;31.83;22.70;;;1.10;99.90;;;;;;5045777;28;20218;-68
2020/12/08 03:58:09;;;;;;;31.30;22.87;;;1.10;99.90;;;;;;5041444;28;20266;-68
2020/12/08 04:00:34;;;;;;;31.60;23.77;;;1.10;99.90;;;;;;5045679;28;20213;-69
2020/12/08 04:03:00;;;;;;;32.87;22.73;;;1.00;99.90;;;;;;5045177;28;20212;-68
2020/12/08 04:05:26;;;;;;;31.43;23.60;;;1.00;99.90;;;;;;5045973;28;20238;-68
2020/12/08 04:07:51;;;;;;;32.00;21.53;;;1.10;99.90;;;;;;5045399;28;20267;-68
2020/12/08 04:10:17;;;;;;;35.07;23.83;;;1.10;99.90;;;;;;5045446;28;20689;-68
2020/12/08 04:12:42;;;;;;;36.93;23.70;;;1.10;99.90;;;;;;5038934;28;20184;-68
2020/12/08 04:15:08;;;;;;;37.43;26.00;;;1.10;99.90;;;;;;5045271;28;20348;-68
2020/12/08 04:17:33;;;;;;;41.80;25.43;;;1.20;99.90;;;;;;5038983;28;20245;-68
2020/12/08 04:19:59;;;;;;;34.63;24.97;;;1.10;99.90;;;;;;5041501;28;20280;-68
2020/12/08 04:22:25;;;;;;;33.03;23.93;;;1.20;99.90;;;;;;5046617;28;20179;-68
2020/12/08 04:24:50;;;;;;;31.30;24.17;;;1.10;99.90;;;;;;5045825;28;20175;-68
2020/12/08 04:27:16;;;;;;;34.20;23.87;;;1.10;99.90;;;;;;5065123;28;20180;-67
2020/12/08 04:29:41;;;;;;;36.33;25.20;;;1.00;99.90;;;;;;5058808;28;20211;-68
2020/12/08 04:32:07;;;;;;;34.80;23.97;;;1.00;99.90;;;;;;5058073;28;20187;-67
2020/12/08 04:34:33;;;;;;;36.57;25.03;;;1.10;99.90;;;;;;5042264;28;20187;-68
2020/12/08 04:36:59;;;;;;;38.90;27.17;;;1.10;99.90;;;;;;5043816;28;20176;-70
2020/12/08 04:39:26;;;;;;;38.93;26.70;;;1.20;99.90;;;;;;5031689;28;20222;-69
2020/12/08 04:41:55;;;;;;;33.83;24.47;;;1.20;99.90;;;;;;5025485;28;20291;-70
2020/12/08 04:44:21;;;;;;;36.23;25.30;;;1.20;99.90;;;;;;5044907;28;20218;-70
2020/12/08 04:46:57;;;;;;;35.97;26.03;;;1.30;99.90;;;;;;5045753;28;20692;-70
2020/12/08 04:49:24;;;;;;;37.10;26.63;;;1.30;99.90;;;;;;5031807;28;20212;-70
2020/12/08 04:51:50;;;;;;;40.03;28.50;;;1.30;99.90;;;;;;5043992;28;20184;-70
2020/12/08 04:54:16;;;;;;;40.83;30.10;;;1.30;99.90;;;;;;5040013;28;20189;-70
2020/12/08 04:56:47;;;;;;;44.90;34.37;;;1.30;99.90;;;;;;5048283;28;20601;-69
2020/12/08 04:59:23;;;;;;;48.33;34.73;;;1.40;99.90;;;;;;5040293;28;20342;-69
2020/12/08 05:01:50;;;;;;;43.13;29.70;;;1.40;99.90;;;;;;5043541;28;20189;-68
2020/12/08 05:04:23;;;;;;;39.83;26.63;;;1.50;99.90;;;;;;5046192;28;20799;-67
2020/12/08 05:07:01;;;;;;;35.67;25.67;;;1.50;99.90;;;;;;5019617;28;20225;-67
2020/12/08 05:09:26;;;;;;;36.70;27.07;;;1.50;99.90;;;;;;5038188;28;20203;-70
2020/12/08 05:11:56;;;;;;;35.57;25.97;;;1.50;99.90;;;;;;5041042;28;20183;-70
2020/12/08 05:14:22;;;;;;;37.93;26.20;;;1.50;99.90;;;;;;5030384;28;20188;-68
2020/12/08 05:16:47;;;;;;;33.90;24.37;;;1.50;99.90;;;;;;5033631;28;20428;-70
2020/12/08 05:19:14;;;;;;;36.47;25.63;;;1.50;99.90;;;;;;5038500;28;20579;-67
2020/12/08 05:21:52;;;;;;;35.43;26.10;;;1.50;99.90;;;;;;5022577;28;20265;-71
2020/12/08 05:24:29;;;;;;;34.60;25.47;;;1.50;99.90;;;;;;5044326;28;20686;-70
2020/12/08 05:26:57;;;;;;;35.30;25.10;;;1.40;99.90;;;;;;5046960;28;20180;-70
2020/12/08 05:29:27;;;;;;;35.90;25.17;;;1.40;99.90;;;;;;5049478;28;20207;-70
2020/12/08 05:31:53;;;;;;;35.47;25.40;;;1.40;99.90;;;;;;5038498;28;20183;-70
2020/12/08 05:34:20;;;;;;;42.37;27.03;;;1.40;99.90;;;;;;5042893;28;20689;-70
2020/12/08 05:36:53;;;;;;;34.87;25.33;;;1.40;99.90;;;;;;5044225;28;20207;-70
2020/12/08 05:39:21;;;;;;;35.50;24.53;;;1.40;99.90;;;;;;5042712;28;20204;-70
2020/12/08 05:41:47;;;;;;;35.03;25.77;;;1.40;99.90;;;;;;5043100;28;20195;-70
2020/12/08 05:44:23;;;;;;;39.57;28.10;;;1.30;99.90;;;;;;5040750;28;20814;-70
2020/12/08 05:46:49;;;;;;;38.93;26.60;;;1.30;99.90;;;;;;5042029;28;20188;-70
2020/12/08 05:49:15;;;;;;;36.87;26.13;;;1.40;99.90;;;;;;5051561;28;20206;-70
2020/12/08 05:51:46;;;;;;;36.50;26.30;;;1.40;99.90;;;;;;5041976;28;20191;-70
2020/12/08 05:54:14;;;;;;;38.33;26.43;;;1.40;99.90;;;;;;5050629;28;20267;-72
2020/12/08 05:56:39;;;;;;;37.57;27.10;;;1.50;99.90;;;;;;5050666;28;20295;-70
2020/12/08 05:59:05;;;;;;;38.37;27.43;;;1.50;99.90;;;;;;5046264;28;20196;-71
2020/12/08 06:01:31;;;;;;;36.90;27.60;;;1.50;99.90;;;;;;5032250;28;20191;-71
2020/12/08 06:03:56;;;;;;;36.93;26.33;;;1.50;99.90;;;;;;5041399;28;20591;-71
2020/12/08 06:06:22;;;;;;;38.17;27.17;;;1.50;99.90;;;;;;5042657;28;20190;-70
2020/12/08 06:08:48;;;;;;;39.40;28.30;;;1.50;99.90;;;;;;5035335;28;20218;-70
2020/12/08 06:11:27;;;;;;;38.03;26.80;;;1.50;99.90;;;;;;5044900;28;20269;-70
2020/12/08 06:13:53;;;;;;;37.67;26.00;;;1.50;99.90;;;;;;5042257;28;20185;-70
2020/12/08 06:16:22;;;;;;;34.53;25.70;;;1.50;99.90;;;;;;5043549;28;20229;-70
2020/12/08 06:18:50;;;;;;;37.63;25.83;;;1.50;99.90;;;;;;5041876;28;20206;-71
2020/12/08 06:21:20;;;;;;;34.83;26.47;;;1.40;99.90;;;;;;5040945;28;20176;-70
2020/12/08 06:23:53;;;;;;;38.53;27.00;;;1.40;99.90;;;;;;5036659;28;20713;-71
2020/12/08 06:26:25;;;;;;;41.07;28.57;;;1.30;99.90;;;;;;5044899;28;20199;-70
2020/12/08 06:28:52;;;;;;;35.87;25.67;;;1.30;99.90;;;;;;5037146;28;20203;-70
2020/12/08 06:31:18;;;;;;;37.63;26.73;;;1.20;99.90;;;;;;5039531;28;20185;-70
2020/12/08 06:33:48;;;;;;;37.60;27.20;;;1.20;99.90;;;;;;5034431;28;20678;-70
2020/12/08 06:36:13;;;;;;;34.87;26.60;;;1.10;99.90;;;;;;5022944;28;20216;-70
2020/12/08 06:38:39;;;;;;;39.80;27.03;;;1.10;99.90;;;;;;5039748;28;20213;-71
2020/12/08 06:41:04;;;;;;;40.93;28.53;;;1.00;99.90;;;;;;5042531;28;20188;-70
2020/12/08 06:43:30;;;;;;;40.33;27.77;;;0.90;99.90;;;;;;5043694;28;20183;-70
2020/12/08 06:46:07;;;;;;;39.30;27.07;;;0.80;99.90;;;;;;5045614;28;20203;-70
2020/12/08 06:48:35;;;;;;;41.03;28.13;;;0.80;99.90;;;;;;5038869;28;20201;-70
2020/12/08 06:51:01;;;;;;;41.10;28.43;;;0.70;99.90;;;;;;5042218;28;20269;-70
2020/12/08 06:53:26;;;;;;;40.83;28.13;;;0.70;99.90;;;;;;5027214;28;20567;-71
2020/12/08 06:55:52;;;;;;;39.63;26.30;;;0.60;99.90;;;;;;5036924;28;20238;-75
2020/12/08 06:58:18;;;;;;;41.43;28.13;;;0.60;99.90;;;;;;5042787;28;20189;-71
2020/12/08 07:00:47;;;;;;;44.17;28.97;;;0.70;99.90;;;;;;5038399;28;20199;-69
2020/12/08 07:03:14;;;;;;;41.90;29.03;;;0.70;99.90;;;;;;5036582;28;20179;-70
2020/12/08 07:05:40;;;;;;;46.33;30.40;;;0.70;99.90;;;;;;5042300;28;20220;-70
2020/12/08 07:08:08;;;;;;;41.67;28.20;;;0.70;99.90;;;;;;5042813;28;20603;-70
2020/12/08 07:10:41;;;;;;;39.73;27.47;;;0.70;99.90;;;;;;5043523;28;20212;-70
2020/12/08 07:13:14;;;;;;;42.13;27.63;;;0.90;99.90;;;;;;5038299;28;20205;-70
2020/12/08 07:15:41;;;;;;;42.17;30.53;;;0.90;99.90;;;;;;5043952;28;20293;-70
2020/12/08 07:18:08;;;;;;;40.67;28.97;;;1.00;99.90;;;;;;5039390;28;20191;-70
2020/12/08 07:20:35;;;;;;;38.80;27.57;;;1.10;99.90;;;;;;5044481;28;20234;-70
2020/12/08 07:23:04;;;;;;;36.73;26.63;;;1.10;99.90;;;;;;5041194;28;20517;-70
2020/12/08 07:25:31;;;;;;;39.87;28.73;;;1.20;99.90;;;;;;5045080;28;20353;-70
2020/12/08 07:27:57;;;;;;;38.43;27.17;;;1.20;99.90;;;;;;5051197;28;20181;-69
2020/12/08 07:30:25;;;;;;;37.67;27.40;;;1.20;99.90;;;;;;5039160;28;20697;-69
2020/12/08 07:32:51;;;;;;;36.57;27.13;;;1.40;99.90;;;;;;5039283;28;20322;-70
2020/12/08 07:35:19;;;;;;;36.50;27.13;;;1.50;99.90;;;;;;5023961;28;20207;-70
2020/12/08 07:37:45;;;;;;;34.77;26.80;;;1.70;99.90;;;;;;5032677;28;20201;-70
2020/12/08 07:40:12;;;;;;;36.10;26.30;;;2.00;99.90;;;;;;5038613;28;20276;-70
2020/12/08 07:42:38;;;;;;;34.43;25.60;;;2.40;99.30;;;;;;5029474;28;20288;-70
2020/12/08 07:45:08;;;;;;;34.33;27.03;;;2.80;98.60;;;;;;5041078;28;20202;-70
2020/12/08 07:47:35;;;;;;;33.93;26.43;;;3.10;97.30;;;;;;5035626;28;20188;-70
2020/12/08 07:50:01;;;;;;;31.47;26.43;;;3.50;95.80;;;;;;5043548;28;20213;-70
2020/12/08 07:52:26;;;;;;;29.83;25.07;;;4.00;94.20;;;;;;5037736;28;20278;-70
2020/12/08 07:54:52;;;;;;;28.50;24.60;;;5.00;92.50;;;;;;5035062;28;20216;-71
2020/12/08 07:57:18;;;;;;;29.67;25.07;;;5.60;89.00;;;;;;5043120;28;20527;-70
2020/12/08 07:59:43;;;;;;;32.47;26.30;;;5.40;87.50;;;;;;5044848;28;20214;-70
2020/12/08 08:02:09;;;;;;;29.67;25.60;;;4.80;90.20;;;;;;5040190;28;20237;-70
2020/12/08 08:04:35;;;;;;;28.33;25.07;;;4.30;92.00;;;;;;5035946;28;20189;-70
2020/12/08 08:07:00;;;;;;;30.53;25.77;;;3.90;92.60;;;;;;5042446;28;20184;-70
2020/12/08 08:09:26;;;;;;;36.57;27.13;;;3.50;93.70;;;;;;5035378;28;20276;-69
2020/12/08 08:11:52;;;;;;;33.50;27.77;;;3.30;94.90;;;;;;5036892;28;20644;-70
2020/12/08 08:14:17;;;;;;;32.43;25.90;;;3.10;95.40;;;;;;5040977;28;20628;-70
2020/12/08 08:16:43;;;;;;;37.67;29.47;;;3.10;95.80;;;;;;5035016;28;20229;-70
2020/12/08 08:19:09;;;;;;;41.23;30.33;;;3.10;95.80;;;;;;5036406;28;20260;-70
2020/12/08 08:21:35;;;;;;;51.97;34.87;;;3.10;96.20;;;;;;5041162;28;20187;-69
2020/12/08 08:24:00;;;;;;;36.20;29.07;;;3.50;95.60;;;;;;5037535;28;20186;-70
2020/12/08 08:26:27;;;;;;;29.43;25.33;;;5.00;93.00;;;;;;5038426;28;20213;-70
2020/12/08 08:28:53;;;;;;;28.30;24.40;;;6.70;84.30;;;;;;5039066;28;20280;-70
2020/12/08 08:31:19;;;;;;;27.43;24.50;;;8.70;70.90;;;;;;5032662;28;20192;-75
2020/12/08 08:33:45;;;;;;;26.63;23.93;;;9.70;62.70;;;;;;5048966;28;20191;-70
2020/12/08 08:36:11;;;;;;;27.58;24.75;;;10.10;58.50;;;;;;5055232;28;20211;-70
2020/12/08 08:38:36;;;;;;;25.88;23.27;;;11.10;57.00;;;;;;5045481;28;20214;-71
2020/12/08 08:41:02;;;;;;;23.15;21.02;;;11.10;55.70;;;;;;5036710;28;20191;-72
2020/12/08 08:43:28;;;;;;;25.33;22.92;;;13.00;53.10;;;;;;5032494;28;20180;-71
2020/12/08 08:45:54;;;;;;;25.10;22.77;;;13.60;48.30;;;;;;5046338;28;20673;-69
2020/12/08 08:48:21;;;;;;;25.85;23.55;;;14.40;47.20;;;;;;5041705;28;20180;-70
2020/12/08 08:50:48;;;;;;;24.95;22.60;;;14.80;44.80;;;;;;5033640;28;20188;-69
2020/12/08 08:53:14;;;;;;;24.85;22.75;;;14.80;44.40;;;;;;5038930;28;20188;-70
2020/12/08 08:55:39;;;;;;;24.00;21.90;;;14.60;44.30;;;;;;5033886;28;20207;-69
2020/12/08 08:58:05;;;;;;;25.63;23.33;;;14.70;43.90;;;;;;5048695;28;20901;-69
2020/12/08 09:00:31;;;;;;;24.05;21.92;;;14.80;44.80;;;;;;5044961;28;20595;-70
2020/12/08 09:02:58;;;;;;;25.58;23.15;;;16.00;42.00;;;;;;5049999;28;20265;-70
2020/12/08 09:05:25;;;;;;;25.08;22.92;;;15.70;41.40;;;;;;5026821;28;20188;-70
2020/12/08 09:07:51;;;;;;;25.83;23.63;;;16.40;40.90;;;;;;5045099;28;20192;-70
2020/12/08 09:10:17;;;;;;;25.20;22.83;;;15.50;41.10;;;;;;5042313;28;20245;-71
2020/12/08 09:12:43;;;;;;;24.30;22.08;;;15.50;42.20;;;;;;5036416;28;20612;-70
2020/12/08 09:15:09;;;;;;;25.23;22.95;;;15.80;40.40;;;;;;5045381;28;20218;-70
2020/12/08 09:17:35;;;;;;;24.13;22.02;;;14.60;42.40;;;;;;5023669;28;20192;-70
2020/12/08 09:20:01;;;;;;;24.27;22.08;;;14.30;44.30;;;;;;5051420;28;20207;-72
2020/12/08 09:22:27;;;;;;;24.80;22.63;;;15.20;42.80;;;;;;5039127;28;20507;-70
2020/12/08 09:24:52;;;;;;;25.08;22.85;;;15.60;41.00;;;;;;5038847;28;20188;-70
2020/12/08 09:27:18;;;;;;;24.90;22.75;;;15.30;41.40;;;;;;5042010;28;20183;-70
2020/12/08 09:29:44;;;;;;;24.35;22.10;;;15.30;41.60;;;;;;5039648;28;20294;-71
2020/12/08 09:32:10;;;;;;;23.88;21.83;;;15.10;42.20;;;;;;5040749;28;20300;-70
2020/12/08 09:34:36;;;;;;;24.38;22.38;;;15.50;41.80;;;;;;5040560;28;20233;-72
2020/12/08 09:37:02;;;;;;;25.15;23.05;;;15.40;41.80;;;;;;5037780;28;20242;-70
2020/12/08 09:39:29;;;;;;;24.05;21.95;;;15.70;40.80;;;;;;5034807;28;20713;-70
2020/12/08 09:41:54;;;;;;;25.42;23.23;;;15.50;41.50;;;;;;5040846;28;20171;-70
2020/12/08 09:44:21;;;;;;;25.02;22.83;;;15.40;42.00;;;;;;5021940;28;20548;-72
2020/12/08 09:46:46;;;;;;;24.25;22.23;;;15.70;41.30;;;;;;5037922;28;20184;-72
2020/12/08 09:49:13;;;;;;;25.70;23.50;;;16.30;41.40;;;;;;5043878;28;20204;-71
2020/12/08 09:51:39;;;;;;;23.30;21.30;;;16.30;40.30;;;;;;5035356;28;20561;-70
2020/12/08 09:54:05;;;;;;;24.52;22.52;;;17.00;39.20;;;;;;5041068;28;20186;-70
2020/12/08 09:56:31;;;;;;;22.77;20.95;;;17.00;38.40;;;;;;5046555;28;20211;-71
2020/12/08 09:58:58;;;;;;;26.75;24.48;;;17.50;38.10;;;;;;5040758;28;20765;-71
2020/12/08 10:01:27;;;;;;;27.48;25.17;;;17.70;37.00;;;;;;5043892;28;20187;-71
2020/12/08 10:03:53;;;;;;;24.85;22.70;;;17.00;38.90;;;;;;5038158;28;20261;-71
2020/12/08 10:06:19;;;;;;;25.42;23.40;;;16.80;38.80;;;;;;5037612;28;20188;-71
2020/12/08 10:08:45;;;;;;;23.33;21.23;;;16.30;39.50;;;;;;5043908;28;20207;-70
2020/12/08 10:11:13;;;;;;;23.83;21.85;;;16.20;39.70;;;;;;5044112;28;20188;-70
2020/12/08 10:13:40;;;;;;;24.08;22.08;;;16.70;39.00;;;;;;5034205;28;20188;-70
2020/12/08 10:16:05;;;;;;;38.85;35.65;;;15.80;40.40;;;;;;5037580;28;20288;-68
2020/12/08 10:18:32;;;;;;;44.97;41.33;;;16.50;40.00;;;;;;5034040;28;20204;-68
2020/12/08 10:20:58;;;;;;;23.77;21.73;;;15.80;41.30;;;;;;5039213;28;20211;-69
2020/12/08 10:23:23;;;;;;;24.65;22.55;;;16.50;39.80;;;;;;5044748;28;20188;-69
2020/12/08 10:25:49;;;;;;;23.08;21.08;;;16.30;40.10;;;;;;5038107;28;20187;-71
2020/12/08 10:28:15;;;;;;;23.60;21.60;;;16.60;39.00;;;;;;5046788;28;20188;-71
2020/12/08 10:30:40;;;;;;;22.48;20.58;;;16.90;38.40;;;;;;5036123;28;20663;-69
2020/12/08 10:33:06;;;;;;;33.08;29.55;;;17.40;37.60;;;;;;5033522;28;20710;-69
2020/12/08 10:35:32;;;;;;;20.55;18.85;;;18.40;36.40;;;;;;5036611;28;20749;-69
2020/12/08 10:37:57;;;;;;;21.20;19.50;;;19.50;35.40;;;;;;5035982;28;20226;-70
2020/12/08 10:40:23;;;;;;;21.90;20.08;;;20.40;33.10;;;;;;5041392;28;20226;-69
2020/12/08 10:42:48;;;;;;;20.80;19.15;;;21.00;31.60;;;;;;5038428;28;20180;-69
2020/12/08 10:45:14;;;;;;;22.45;20.55;;;19.70;32.60;;;;;;5041704;28;20194;-69
2020/12/08 10:47:40;;;;;;;26.83;24.27;;;19.10;33.50;;;;;;5041433;28;20262;-70
2020/12/08 10:50:06;;;;;;;22.52;20.65;;;18.30;34.70;;;;;;5034282;28;20204;-69
2020/12/08 10:52:31;;;;;;;21.67;19.98;;;18.10;35.40;;;;;;5039880;28;20259;-69
2020/12/08 10:54:57;;;;;;;20.95;19.25;;;17.30;35.80;;;;;;5033643;28;20312;-68
2020/12/08 10:57:23;;;;;;;23.30;21.05;;;16.30;37.60;;;;;;5041857;28;20254;-70
2020/12/08 10:59:49;;;;;;;22.50;20.63;;;15.70;39.40;;;;;;5036605;28;20191;-69
2020/12/08 11:02:14;;;;;;;22.77;20.77;;;15.10;40.30;;;;;;5034319;28;20270;-69
2020/12/08 11:04:40;;;;;;;21.05;19.23;;;14.40;42.00;;;;;;5045417;28;20204;-68
2020/12/08 11:07:06;;;;;;;21.60;19.70;;;13.90;42.60;;;;;;5035789;28;20710;-69
2020/12/08 11:09:32;;;;;;;21.40;19.60;;;14.50;43.90;;;;;;5041152;28;20207;-69
2020/12/08 11:11:57;;;;;;;21.73;19.60;;;14.80;41.80;;;;;;5037206;28;20183;-68
2020/12/08 11:14:23;;;;;;;22.15;20.15;;;14.50;43.50;;;;;;5042632;28;20175;-69
2020/12/08 11:16:49;;;;;;;22.33;20.27;;;14.30;44.30;;;;;;5040073;28;20187;-71
2020/12/08 11:19:14;;;;;;;22.08;20.05;;;14.10;43.80;;;;;;5041681;28;20214;-69
2020/12/08 11:21:41;;;;;;;21.38;19.38;;;14.30;44.00;;;;;;5035248;28;20184;-68
2020/12/08 11:24:08;;;;;;;21.48;19.45;;;13.90;44.70;;;;;;5037142;28;20186;-69
2020/12/08 11:26:34;;;;;;;22.67;20.63;;;13.30;45.10;;;;;;5040766;28;20199;-68
2020/12/08 11:29:00;;;;;;;22.92;20.65;;;12.70;46.00;;;;;;5036061;28;20228;-69
2020/12/08 11:31:27;;;;;;;21.23;19.23;;;12.70;47.30;;;;;;5038906;28;20204;-69
2020/12/08 11:33:52;;;;;;;24.85;22.35;;;12.60;45.20;;;;;;5044122;28;20194;-69
2020/12/08 11:36:19;;;;;;;22.17;20.08;;;12.30;46.20;;;;;;5033850;28;20274;-69
2020/12/08 11:38:45;;;;;;;21.55;19.55;;;12.50;46.00;;;;;;5037071;28;20216;-70
2020/12/08 11:41:11;;;;;;;20.42;18.55;;;12.60;46.00;;;;;;5039988;28;20183;-70
2020/12/08 11:43:37;;;;;;;20.63;18.00;;;12.80;44.60;;;;;;5018666;28;20192;-69
2020/12/08 11:46:04;;;;;;;19.85;17.58;;;13.00;45.70;;;;;;5044935;28;20217;-70
2020/12/08 11:48:29;;;;;;;19.10;17.35;;;13.20;44.30;;;;;;5041764;28;20246;-70
2020/12/08 11:50:56;;;;;;;18.65;17.05;;;13.90;43.60;;;;;;5044686;28;20183;-70
2020/12/08 11:53:22;;;;;;;18.38;16.58;;;14.20;42.60;;;;;;5037024;28;20180;-70
2020/12/08 11:55:49;;;;;;;17.83;16.17;;;14.40;42.20;;;;;;5039918;28;20188;-70
2020/12/08 11:58:15;;;;;;;20.25;18.23;;;14.20;42.40;;;;;;5040442;28;20203;-69
2020/12/08 12:00:41;;;;;;;18.85;17.23;;;14.30;42.40;;;;;;5032901;28;20210;-70
2020/12/08 12:03:07;;;;;;;19.83;18.05;;;14.20;42.40;;;;;;5045328;28;20188;-70
2020/12/08 12:05:33;;;;;;;19.40;17.58;;;14.10;43.20;;;;;;5032404;28;20592;-70
2020/12/08 12:07:59;;;;;;;19.27;17.55;;;14.00;43.10;;;;;;5023490;28;20263;-69
2020/12/08 12:10:25;;;;;;;19.27;17.58;;;13.60;43.80;;;;;;5037106;28;20429;-70
2020/12/08 12:12:50;;;;;;;18.85;17.05;;;13.60;44.40;;;;;;5042042;28;20191;-70
2020/12/08 12:15:16;;;;;;;18.20;16.55;;;13.10;44.10;;;;;;5041950;28;20191;-69
2020/12/08 12:17:42;;;;;;;17.58;16.08;;;13.00;45.10;;;;;;5046422;28;20274;-70
2020/12/08 12:20:08;;;;;;;17.70;15.93;;;13.00;44.60;;;;;;5044120;28;20563;-70
2020/12/08 12:22:37;;;;;;;16.92;15.40;;;13.30;44.70;;;;;;5027512;28;20176;-70
2020/12/08 12:25:03;;;;;;;16.40;14.75;;;13.50;43.90;;;;;;5045364;28;20286;-71
2020/12/08 12:27:29;;;;;;;17.60;16.00;;;13.70;43.40;;;;;;5044807;28;20180;-70
2020/12/08 12:29:54;;;;;;;33.05;24.58;;;12.90;43.60;;;;;;5045139;28;20263;-69